Time;durP1;ratioP1;P1;durP2;ratioP2;P2;SDS_P1;SDS_P2;PMS_P1;PMS_P2;Temp;Humidity;BMP_temperature;BMP_pressure;BME280_temperature;BME280_humidity;BME280_pressure;Samples;Min_cycle;Max_cycle;Signal;HPM_P1;HPM_P2
2023/01/27 00:00:52;;;;;;;4.57;1.73;;;;;;;1.96;100.00;100699.03;5054713;28;20516;-55
2023/01/27 00:03:19;;;;;;;3.93;2.57;;;;;;;1.95;100.00;100707.78;5036353;28;20486;-55
2023/01/27 00:05:46;;;;;;;0.30;0.30;;;;;;;2.02;100.00;100700.84;5054789;28;20524;-55
2023/01/27 00:08:13;;;;;;;3.40;2.93;;;;;;;2.00;100.00;100700.84;5054572;28;20451;-55
2023/01/27 00:10:39;;;;;;;0.97;0.80;;;;;;;2.00;100.00;100695.59;5054453;28;20939;-55
2023/01/27 00:15:51;;;;;;;2.40;2.30;;;;;;;2.04;100.00;100693.88;5054443;28;20449;-55
2023/01/27 00:18:18;;;;;;;2.43;2.33;;;;;;;1.96;100.00;100691.19;5054433;28;20451;-56
2023/01/27 00:26:18;;;;;;;2.67;2.33;;;;;;;1.97;100.00;100690.31;5054519;28;20449;-56
2023/01/27 00:28:46;;;;;;;4.70;1.80;;;;;;;1.96;100.00;100685.94;5054590;28;20565;-55
2023/01/27 00:34:07;;;;;;;1.50;1.20;;;;;;;1.87;100.00;100687.56;5054160;28;20478;-56
2023/01/27 00:36:36;;;;;;;1.20;1.10;;;;;;;1.97;100.00;100687.69;5041430;28;20473;-56
2023/01/27 00:39:05;;;;;;;1.30;1.23;;;;;;;1.80;100.00;100684.00;5054158;28;21043;-56
2023/01/27 00:41:32;;;;;;;1.53;1.43;;;;;;;1.73;100.00;100687.38;5054089;28;20483;-57
2023/01/27 00:44:00;;;;;;;0.97;0.97;;;;;;;1.87;100.00;100687.56;5053758;28;20479;-57
2023/01/27 00:46:26;;;;;;;7.63;1.80;;;;;;;1.94;100.00;100692.91;5054097;28;20519;-57
2023/01/27 00:48:53;;;;;;;1.83;1.30;;;;;;;1.99;100.00;100693.84;5053810;28;20542;-56
2023/01/27 00:51:21;;;;;;;0.57;0.53;;;;;;;2.02;100.00;100682.50;5054035;28;20443;-57
2023/01/27 00:53:47;;;;;;;7.93;2.03;;;;;;;1.90;100.00;100688.47;5053817;28;20479;-57
2023/01/27 00:56:14;;;;;;;0.40;0.40;;;;;;;1.78;100.00;100689.22;5053364;28;20469;-57
2023/01/27 00:58:41;;;;;;;2.10;1.43;;;;;;;1.82;100.00;100684.88;5053687;28;20451;-57
2023/01/27 01:01:11;;;;;;;4.00;2.57;;;;;;;1.82;100.00;100684.88;5053241;28;20497;-57
2023/01/27 01:03:38;;;;;;;4.50;2.37;;;;;;;1.71;100.00;100684.75;5053038;28;20474;-56
2023/01/27 01:06:08;;;;;;;15.10;3.67;;;;;;;1.75;100.00;100688.28;5053287;28;20546;-57
2023/01/27 01:08:36;;;;;;;8.10;2.67;;;;;;;1.66;100.00;100682.94;5053126;28;20782;-57
2023/01/27 01:11:04;;;;;;;1.90;1.80;;;;;;;1.81;100.00;100696.22;5053433;28;20537;-57
2023/01/27 01:13:31;;;;;;;6.60;1.80;;;;;;;1.74;100.00;100689.13;5053162;28;20467;-56
2023/01/27 01:16:08;;;;;;;3.90;2.40;;;;;;;1.72;100.00;100693.47;5053172;28;20533;-56
2023/01/27 01:18:34;;;;;;;3.63;1.23;;;;;;;1.94;100.00;100698.16;5053301;28;20476;-57
2023/01/27 01:21:01;;;;;;;1.67;0.90;;;;;;;1.76;100.00;100697.88;5052875;28;20482;-56
2023/01/27 01:23:28;;;;;;;8.00;1.53;;;;;;;1.64;100.00;100711.69;5052849;28;20481;-57
2023/01/27 01:25:56;;;;;;;1.43;1.33;;;;;;;1.67;100.00;100708.25;5052969;28;20461;-57
2023/01/27 01:28:23;;;;;;;3.60;2.00;;;;;;;1.80;100.00;100707.56;5052794;28;20447;-56
2023/01/27 01:30:49;;;;;;;1.73;1.50;;;;;;;1.75;100.00;100704.88;5052821;28;20500;-56
2023/01/27 01:33:16;;;;;;;1.57;1.40;;;;;;;1.90;100.00;100705.94;5052707;28;20932;-56
2023/01/27 01:35:42;;;;;;;1.90;1.77;;;;;;;1.87;100.00;100703.28;5052934;28;20512;-57
2023/01/27 01:38:09;;;;;;;2.63;2.43;;;;;;;1.89;100.00;100712.03;5052664;28;20465;-56
2023/01/27 01:40:40;;;;;;;4.53;0.97;;;;;;;2.11;100.00;100707.97;5052615;28;20486;-56
2023/01/27 01:43:13;;;;;;;5.60;4.23;;;;;;;1.86;100.00;100717.25;5052386;28;20557;-57
2023/01/27 01:45:52;;;;;;;1.30;0.70;;;;;;;1.96;100.00;100706.03;5052675;28;21030;-56
2023/01/27 01:48:34;;;;;;;0.30;0.20;;;;;;;1.96;100.00;100708.66;5052627;28;20462;-56
2023/01/27 01:51:12;;;;;;;1.87;1.73;;;;;;;1.84;100.00;100701.50;5052598;28;20443;-57
2023/01/27 01:54:02;;;;;;;0.90;0.90;;;;;;;1.82;100.00;100704.97;5049026;28;20573;-57
2023/01/27 01:56:51;;;;;;;1.07;0.93;;;;;;;1.77;100.00;100704.88;5052548;28;20459;-56
2023/01/27 01:59:25;;;;;;;2.70;2.50;;;;;;;1.84;100.00;100696.25;5052420;28;20849;-56
2023/01/27 02:01:55;;;;;;;1.40;1.30;;;;;;;1.89;100.00;100696.31;5039473;28;20486;-57
2023/01/27 02:04:25;;;;;;;1.00;1.00;;;;;;;1.88;100.00;100702.41;5052120;28;20882;-55
2023/01/27 02:07:02;;;;;;;2.10;2.00;;;;;;;1.89;100.00;100696.31;5052068;28;20439;-57
2023/01/27 02:09:28;;;;;;;1.70;0.87;;;;;;;1.92;100.00;100702.50;5052555;28;20947;-56
2023/01/27 02:11:57;;;;;;;3.53;1.50;;;;;;;2.02;100.00;100700.84;5052284;28;20537;-57
2023/01/27 02:14:24;;;;;;;2.00;1.50;;;;;;;1.98;100.00;100694.69;5052067;28;20457;-57
2023/01/27 02:16:51;;;;;;;2.70;2.50;;;;;;;2.02;100.00;100691.25;5052357;28;20451;-56
2023/01/27 02:19:26;;;;;;;2.13;1.93;;;;;;;2.00;100.00;100697.34;5052168;28;20446;-55
2023/01/27 02:21:55;;;;;;;2.50;2.40;;;;;;;1.84;100.00;100696.25;5052072;28;21003;-57
2023/01/27 02:24:30;;;;;;;1.50;1.00;;;;;;;1.99;100.00;100688.59;5052097;28;20451;-57
2023/01/27 02:26:57;;;;;;;1.13;1.13;;;;;;;2.12;100.00;100686.13;5051981;28;20446;-57
2023/01/27 02:29:23;;;;;;;7.03;2.43;;;;;;;2.12;100.00;100684.38;5052213;28;20458;-57
2023/01/27 02:31:50;;;;;;;11.87;2.27;;;;;;;2.20;100.00;100679.25;5052031;28;20450;-57
2023/01/27 02:34:20;;;;;;;1.10;1.10;;;;;;;2.15;100.00;100691.41;5052164;28;20457;-55
2023/01/27 02:36:53;;;;;;;1.80;1.70;;;;;;;2.24;100.00;100681.03;5052123;28;20446;-56
2023/01/27 02:39:23;;;;;;;2.40;1.27;;;;;;;2.30;100.00;100686.31;5051961;28;20446;-56
2023/01/27 02:41:53;;;;;;;3.53;2.13;;;;;;;2.26;100.00;100679.28;5051851;28;20491;-55
2023/01/27 02:44:20;;;;;;;1.13;1.13;;;;;;;2.28;100.00;100685.44;5051923;28;20453;-56
2023/01/27 02:46:47;;;;;;;10.50;1.70;;;;;;;2.67;100.00;100683.22;5051908;28;20560;-57
2023/01/27 02:49:13;;;;;;;1.53;1.43;;;;;;;2.53;100.00;100690.09;5051831;28;20537;-57
2023/01/27 02:51:40;;;;;;;1.70;1.03;;;;;;;2.42;100.00;100691.72;5051876;28;20577;-57
2023/01/27 02:54:06;;;;;;;1.23;1.03;;;;;;;2.60;100.00;100693.63;5048221;28;20479;-56
2023/01/27 02:56:33;;;;;;;2.40;2.13;;;;;;;2.47;100.00;100697.91;5051942;28;20479;-56
2023/01/27 02:58:59;;;;;;;0.80;0.77;;;;;;;2.36;100.00;100695.16;5051964;28;20452;-57
2023/01/27 03:01:31;;;;;;;1.83;1.23;;;;;;;2.48;100.00;100691.78;5051706;28;20572;-57
2023/01/27 03:03:58;;;;;;;5.70;2.07;;;;;;;2.34;100.00;100694.28;5051583;28;20502;-57
2023/01/27 03:06:25;;;;;;;4.23;1.67;;;;;;;2.47;100.00;100691.75;5051481;28;20798;-57
2023/01/27 03:08:51;;;;;;;3.33;1.43;;;;;;;2.40;100.00;100693.44;5051890;28;20455;-57
2023/01/27 03:12:18;;;;;;;4.43;4.13;;;;;;;2.61;100.00;100692.81;5051758;28;20521;-56
2023/01/27 03:14:06;;;;;;;1.07;0.60;;;;;;;3.07;100.00;100694.09;5051370;28;20473;-57
2023/01/27 03:19:18;;;;;;;4.13;1.90;;;;;;;2.98;100.00;100701.88;5053606;28;20449;-57
2023/01/27 03:21:44;;;;;;;9.63;3.20;;;;;;;3.11;100.00;100702.88;5055211;28;21061;-57
2023/01/27 03:24:11;;;;;;;3.33;1.07;;;;;;;3.06;100.00;100696.72;5055306;28;20452;-57
2023/01/27 03:26:37;;;;;;;1.07;1.07;;;;;;;3.00;100.00;100697.50;5055372;28;20496;-57
2023/01/27 03:31:48;;;;;;;4.93;3.80;;;;;;;3.34;100.00;100709.19;5055279;28;20453;-56
2023/01/27 03:34:15;;;;;;;1.77;1.67;;;;;;;2.86;100.00;100702.66;5054893;28;20970;-57
2023/01/27 03:47:43;;;;;;;2.73;1.90;;;;;;;2.56;100.00;100718.97;5055126;28;20439;-57
2023/01/27 03:50:12;;;;;;;7.60;3.60;;;;;;;2.55;100.00;100721.59;5054853;28;20580;-56
2023/01/27 03:52:39;;;;;;;5.13;2.67;;;;;;;2.57;100.00;100714.59;5054770;28;20976;-57
2023/01/27 03:55:08;;;;;;;2.27;2.17;;;;;;;2.58;100.00;100719.88;5055024;28;20472;-56
2023/01/27 03:57:36;;;;;;;1.73;1.63;;;;;;;2.63;100.00;100717.31;5054894;28;20450;-57
2023/01/27 04:00:04;;;;;;;3.83;2.90;;;;;;;2.68;100.00;100715.59;5054702;28;20537;-57
2023/01/27 04:08:04;;;;;;;2.63;2.53;;;;;;;2.70;100.00;100713.88;5054437;28;21012;-56
2023/01/27 04:10:30;;;;;;;3.53;3.27;;;;;;;2.59;100.00;100713.75;5049757;28;20478;-57
2023/01/27 04:12:56;;;;;;;0.87;0.80;;;;;;;2.62;100.00;100710.31;5053211;28;20881;-56
2023/01/27 04:15:23;;;;;;;2.00;1.90;;;;;;;2.60;100.00;100707.66;5054288;28;20451;-57
2023/01/27 04:17:49;;;;;;;4.03;3.47;;;;;;;2.59;100.00;100712.88;5054370;28;20450;-57
2023/01/27 04:20:17;;;;;;;2.20;2.10;;;;;;;2.58;100.00;100709.38;5054604;28;20509;-57
2023/01/27 04:22:43;;;;;;;3.23;1.73;;;;;;;2.77;100.00;100717.44;5054231;28;20888;-57
2023/01/27 04:25:10;;;;;;;3.37;3.07;;;;;;;2.66;100.00;100719.97;5054347;28;20477;-56
2023/01/27 04:27:38;;;;;;;3.57;1.20;;;;;;;2.53;100.00;100716.31;5054135;28;20458;-57
2023/01/27 04:30:06;;;;;;;2.23;2.07;;;;;;;2.66;100.00;100717.34;5053543;28;20451;-57
2023/01/27 04:32:32;;;;;;;3.17;2.87;;;;;;;2.45;100.00;100720.59;5054245;28;20553;-57
2023/01/27 04:34:59;;;;;;;3.70;1.03;;;;;;;2.49;100.00;100717.16;5054089;28;20455;-57
2023/01/27 04:37:25;;;;;;;1.50;0.93;;;;;;;2.56;100.00;100716.34;5053750;28;20447;-57
2023/01/27 04:39:52;;;;;;;3.43;0.90;;;;;;;2.54;100.00;100722.44;5053791;28;20461;-57
2023/01/27 04:42:18;;;;;;;2.67;1.83;;;;;;;2.54;100.00;100727.69;5053434;28;20573;-57
2023/01/27 04:44:45;;;;;;;2.43;1.70;;;;;;;2.56;100.00;100725.97;5053647;28;20795;-57
2023/01/27 04:47:11;;;;;;;5.60;1.90;;;;;;;2.58;100.00;100730.38;5053871;28;20443;-57
2023/01/27 04:49:38;;;;;;;1.07;1.03;;;;;;;2.66;100.00;100722.59;5053836;28;20497;-57
2023/01/27 04:52:04;;;;;;;2.13;1.93;;;;;;;2.63;100.00;100733.06;5053596;28;20470;-57
2023/01/27 04:54:31;;;;;;;4.80;3.00;;;;;;;2.77;100.00;100734.06;5050397;28;20948;-57
2023/01/27 04:56:59;;;;;;;5.20;0.77;;;;;;;2.73;100.00;100732.25;5053390;28;20465;-57
2023/01/27 04:59:26;;;;;;;1.00;0.90;;;;;;;2.79;100.00;100734.09;5053667;28;20450;-57
2023/01/27 05:01:52;;;;;;;2.50;1.60;;;;;;;2.73;100.00;100737.50;5053434;28;20494;-57
2023/01/27 05:04:20;;;;;;;2.70;2.03;;;;;;;2.78;100.00;100732.34;5053268;28;20459;-57
2023/01/27 05:06:46;;;;;;;1.37;0.73;;;;;;;2.84;100.00;100742.88;5053445;28;20450;-57
2023/01/27 05:09:13;;;;;;;1.90;1.47;;;;;;;2.83;100.00;100754.25;5053146;28;20951;-57
2023/01/27 05:11:39;;;;;;;4.13;1.60;;;;;;;2.87;100.00;100748.16;5053130;28;20509;-57
2023/01/27 05:14:05;;;;;;;5.13;3.13;;;;;;;2.81;100.00;100745.47;5053239;28;20839;-57
2023/01/27 05:16:32;;;;;;;7.00;1.30;;;;;;;2.72;100.00;100754.13;5053235;28;20455;-57
2023/01/27 05:18:58;;;;;;;4.13;2.47;;;;;;;2.67;100.00;100750.59;5053148;28;20451;-57
2023/01/27 05:21:27;;;;;;;6.87;2.20;;;;;;;2.75;100.00;100746.31;5052960;28;20487;-56
2023/01/27 05:23:53;;;;;;;2.30;1.53;;;;;;;2.75;100.00;100761.19;5052814;28;20474;-57
2023/01/27 05:26:22;;;;;;;2.30;1.33;;;;;;;2.72;100.00;100753.25;5052887;28;20577;-56
2023/01/27 05:28:51;;;;;;;11.23;1.37;;;;;;;2.63;100.00;100768.03;5052941;28;20459;-57
2023/01/27 05:31:26;;;;;;;3.50;1.50;;;;;;;3.03;100.00;100762.34;5052960;28;20451;-57
2023/01/27 05:33:54;;;;;;;3.20;1.70;;;;;;;2.80;100.00;100764.72;5052756;28;20474;-56
2023/01/27 05:36:22;;;;;;;3.57;2.13;;;;;;;2.74;100.00;100764.63;5052734;28;20497;-57
2023/01/27 05:38:49;;;;;;;1.17;1.07;;;;;;;2.76;100.00;100758.56;5052965;28;20455;-57
2023/01/27 05:41:17;;;;;;;2.93;1.57;;;;;;;2.73;100.00;100766.38;5052557;28;20451;-57
2023/01/27 05:43:45;;;;;;;1.70;1.27;;;;;;;2.72;100.00;100769.88;5051755;28;20850;-57
2023/01/27 05:46:17;;;;;;;2.40;2.30;;;;;;;2.76;100.00;100765.56;5052650;28;20482;-57
2023/01/27 05:48:49;;;;;;;1.70;1.60;;;;;;;2.69;100.00;100767.22;5052592;28;20450;-56
2023/01/27 05:51:18;;;;;;;1.57;1.47;;;;;;;2.71;100.00;100764.59;5034755;28;20451;-57
2023/01/27 05:53:46;;;;;;;1.27;1.20;;;;;;;2.69;100.00;100767.22;5048913;28;20479;-57
2023/01/27 05:56:15;;;;;;;2.17;1.97;;;;;;;2.71;100.00;100770.75;5052524;28;20814;-57
2023/01/27 05:58:42;;;;;;;0.77;0.77;;;;;;;2.66;100.00;100772.44;5034800;28;20457;-57
2023/01/27 06:01:19;;;;;;;3.07;2.90;;;;;;;2.80;100.00;100775.22;5052273;28;20457;-56
2023/01/27 06:03:46;;;;;;;3.73;2.80;;;;;;;2.77;100.00;100773.44;5040179;28;20480;-57
2023/01/27 06:06:15;;;;;;;2.90;2.70;;;;;;;2.76;100.00;100774.31;5052529;28;20446;-56
2023/01/27 06:08:42;;;;;;;3.83;3.50;;;;;;;2.83;100.00;100780.50;5052264;28;20796;-57
2023/01/27 06:11:08;;;;;;;2.20;1.90;;;;;;;2.97;100.00;100777.16;5052310;28;20550;-57
2023/01/27 06:13:37;;;;;;;14.27;2.30;;;;;;;2.96;100.00;100783.25;5052218;28;20467;-57
2023/01/27 06:16:06;;;;;;;2.50;1.93;;;;;;;3.27;100.00;100776.53;5052052;28;20841;-57
2023/01/27 06:18:33;;;;;;;22.53;3.40;;;;;;;3.06;100.00;100776.38;5052226;28;20508;-57
2023/01/27 06:21:01;;;;;;;3.90;3.60;;;;;;;2.99;100.00;100779.78;5052112;28;20454;-58
2023/01/27 06:23:28;;;;;;;1.97;1.77;;;;;;;3.01;100.00;100777.16;5051988;28;20495;-55
2023/01/27 06:25:55;;;;;;;2.30;1.93;;;;;;;3.34;100.00;100788.00;5052044;28;20456;-57
2023/01/27 06:28:22;;;;;;;5.57;2.13;;;;;;;3.11;100.00;100786.91;5052086;28;20924;-57
2023/01/27 06:30:56;;;;;;;2.10;2.00;;;;;;;3.56;100.00;100787.31;5052619;28;20443;-56
2023/01/27 06:33:22;;;;;;;2.20;1.57;;;;;;;3.20;100.00;100785.25;5052593;28;20466;-56
2023/01/27 06:35:49;;;;;;;5.53;1.77;;;;;;;3.04;100.00;100793.84;5052597;28;20451;-58
2023/01/27 06:38:15;;;;;;;3.60;1.90;;;;;;;3.11;100.00;100797.41;5052562;28;20508;-56
2023/01/27 06:40:42;;;;;;;5.40;4.10;;;;;;;2.96;100.00;100796.38;5052367;28;20792;-55
2023/01/27 06:43:13;;;;;;;2.30;1.90;;;;;;;3.06;100.00;100792.13;5052247;28;20494;-56
2023/01/27 06:45:40;;;;;;;2.93;2.47;;;;;;;3.08;100.00;100803.53;5052309;28;20848;-56
2023/01/27 06:48:07;;;;;;;5.63;3.43;;;;;;;3.12;100.00;100801.78;5052413;28;21019;-56
2023/01/27 06:50:35;;;;;;;2.43;2.13;;;;;;;3.04;100.00;100806.09;5052420;28;20826;-56
2023/01/27 06:53:04;;;;;;;3.33;3.13;;;;;;;3.05;100.00;100805.25;5049155;28;20859;-56
2023/01/27 06:55:31;;;;;;;12.30;2.17;;;;;;;2.98;100.00;100812.16;5056342;28;20451;-56
2023/01/27 06:57:57;;;;;;;3.43;3.23;;;;;;;2.91;100.00;100812.97;5056181;28;20450;-56
2023/01/27 07:00:24;;;;;;;1.57;1.47;;;;;;;2.90;100.00;100816.47;5056288;28;20537;-56
2023/01/27 07:02:54;;;;;;;0.83;0.83;;;;;;;2.91;100.00;100805.09;5055867;28;20494;-56
2023/01/27 07:05:20;;;;;;;1.80;1.40;;;;;;;3.02;100.00;100810.47;5055933;28;20940;-56
2023/01/27 07:07:47;;;;;;;2.20;2.03;;;;;;;2.97;100.00;100806.03;5055991;28;20457;-56
2023/01/27 07:10:13;;;;;;;2.83;2.63;;;;;;;2.86;100.00;100810.28;5055943;28;20464;-56
2023/01/27 07:12:40;;;;;;;1.47;1.37;;;;;;;2.92;100.00;100812.09;5055612;28;20554;-56
2023/01/27 07:15:08;;;;;;;2.57;2.47;;;;;;;2.90;100.00;100816.47;5056325;28;20447;-55
2023/01/27 07:17:35;;;;;;;2.50;1.40;;;;;;;2.84;100.00;100819.88;5055807;28;20496;-56
2023/01/27 07:20:03;;;;;;;2.60;2.50;;;;;;;2.77;100.00;100822.44;5055798;28;20447;-56
2023/01/27 07:22:30;;;;;;;2.97;2.57;;;;;;;2.84;100.00;100826.88;5055226;28;21408;-55
2023/01/27 07:24:56;;;;;;;2.17;2.07;;;;;;;2.82;100.00;100825.97;5055443;28;20508;-55
2023/01/27 07:27:23;;;;;;;1.30;1.27;;;;;;;2.86;100.00;100835.66;5055770;28;20454;-56
2023/01/27 07:29:50;;;;;;;0.80;0.80;;;;;;;2.72;100.00;100838.13;5055632;28;20450;-56
2023/01/27 07:32:17;;;;;;;5.40;3.67;;;;;;;2.84;100.00;100833.00;5055439;28;20876;-56
2023/01/27 07:34:43;;;;;;;1.77;1.50;;;;;;;2.88;100.00;100839.19;5055617;28;20452;-56
2023/01/27 07:37:10;;;;;;;5.67;2.53;;;;;;;2.96;100.00;100830.53;5055409;28;20451;-55
2023/01/27 07:39:37;;;;;;;1.53;1.43;;;;;;;2.96;100.00;100829.66;5055397;28;20469;-56
2023/01/27 07:42:04;;;;;;;1.67;1.57;;;;;;;2.94;100.00;100834.00;5055396;28;20490;-56
2023/01/27 07:44:30;;;;;;;3.40;3.20;;;;;;;2.96;100.00;100833.16;5055272;28;20454;-55
2023/01/27 07:46:57;;;;;;;1.50;1.40;;;;;;;2.95;100.00;100835.75;5055042;28;21010;-56
2023/01/27 07:49:24;;;;;;;13.33;2.87;;;;;;;3.00;100.00;100834.06;5055102;28;20461;-55
2023/01/27 07:51:53;;;;;;;7.30;1.67;;;;;;;3.09;100.00;100830.66;5037707;28;20461;-56
2023/01/27 07:54:19;;;;;;;1.63;1.53;;;;;;;2.97;100.00;100849.78;5052319;28;20458;-56
2023/01/27 07:56:45;;;;;;;14.27;4.13;;;;;;;2.93;100.00;100843.63;5055377;28;20451;-55
2023/01/27 07:59:12;;;;;;;2.20;1.90;;;;;;;2.91;100.00;100845.34;5054979;28;20453;-56
2023/01/27 08:01:40;;;;;;;2.60;2.50;;;;;;;3.04;100.00;100848.13;5055133;28;20572;-56
2023/01/27 08:04:07;;;;;;;4.67;3.37;;;;;;;3.05;100.00;100850.75;5055061;28;20474;-55
2023/01/27 08:06:33;;;;;;;8.53;4.93;;;;;;;3.01;100.00;100853.31;5053670;28;21009;-55
2023/01/27 08:09:00;;;;;;;3.20;1.50;;;;;;;3.01;100.00;100855.94;5055090;28;20443;-56
2023/01/27 08:11:26;;;;;;;13.30;5.10;;;;;;;3.05;100.00;100863.91;5054681;28;20453;-56
2023/01/27 08:13:53;;;;;;;2.30;1.77;;;;;;;2.96;100.00;100861.16;5054869;28;20846;-56
2023/01/27 08:16:19;;;;;;;2.13;2.00;;;;;;;3.06;100.00;100859.53;5054727;28;20838;-55
2023/01/27 08:18:46;;;;;;;4.30;1.50;;;;;;;3.06;100.00;100859.53;5036952;28;20458;-55
2023/01/27 08:21:12;;;;;;;3.83;1.60;;;;;;;3.17;100.00;100865.78;5054471;28;20451;-56
2023/01/27 08:23:39;;;;;;;3.87;3.10;;;;;;;3.15;100.00;100859.59;5054709;28;20494;-56
2023/01/27 08:26:06;;;;;;;2.53;2.43;;;;;;;3.16;100.00;100864.00;5054414;28;21026;-56
2023/01/27 08:28:34;;;;;;;1.33;1.33;;;;;;;3.16;100.00;100862.28;5054627;28;20466;-56
2023/01/27 08:31:15;;;;;;;2.33;2.23;;;;;;;3.06;100.00;100868.28;5041480;28;20458;-56
2023/01/27 08:33:44;;;;;;;4.03;3.83;;;;;;;3.05;100.00;100861.25;5054325;28;20458;-56
2023/01/27 08:36:15;;;;;;;2.93;2.83;;;;;;;3.17;100.00;100857.91;5054479;28;20453;-55
2023/01/27 08:38:44;;;;;;;3.47;1.80;;;;;;;3.39;100.00;100858.97;5054523;28;20470;-55
2023/01/27 08:41:13;;;;;;;4.23;2.67;;;;;;;3.25;100.00;100871.97;5053957;28;20459;-56
2023/01/27 08:43:41;;;;;;;9.50;2.47;;;;;;;3.23;100.00;100873.72;5053871;28;20487;-56
2023/01/27 08:46:08;;;;;;;8.27;4.70;;;;;;;3.30;100.00;100874.66;5054102;28;20453;-55
2023/01/27 08:48:36;;;;;;;4.60;1.70;;;;;;;3.30;100.00;100883.44;5054232;28;20453;-55
2023/01/27 08:51:05;;;;;;;5.13;3.53;;;;;;;3.23;100.00;100878.97;5054388;28;20447;-56
2023/01/27 08:53:33;;;;;;;5.70;3.17;;;;;;;3.17;100.00;100887.66;5050926;28;21063;-56
2023/01/27 08:56:04;;;;;;;4.20;3.90;;;;;;;3.06;100.00;100891.91;5053902;28;20450;-56
2023/01/27 08:58:32;;;;;;;2.97;2.03;;;;;;;3.15;100.00;100894.66;5053678;28;20510;-55
2023/01/27 09:01:00;;;;;;;7.23;3.93;;;;;;;3.30;100.00;100896.56;5053890;28;20451;-56
2023/01/27 09:03:31;;;;;;;10.33;3.30;;;;;;;3.33;100.00;100893.09;5040751;28;20502;-56
2023/01/27 09:05:57;;;;;;;8.63;3.43;;;;;;;3.28;100.00;100900.88;5053593;28;20813;-56
2023/01/27 09:08:25;;;;;;;6.60;3.30;;;;;;;3.34;100.00;100900.97;5054065;28;20451;-56
2023/01/27 09:10:52;;;;;;;5.17;4.77;;;;;;;3.34;100.00;100902.72;5053679;28;20450;-56
2023/01/27 09:13:21;;;;;;;3.47;2.43;;;;;;;3.33;100.00;100909.72;5053857;28;20473;-55
2023/01/27 09:15:50;;;;;;;10.73;5.70;;;;;;;3.37;100.00;100908.88;5053420;28;20454;-56
2023/01/27 09:18:17;;;;;;;11.70;5.47;;;;;;;3.39;100.00;100911.53;5053599;28;20814;-56
2023/01/27 09:20:43;;;;;;;3.03;2.47;;;;;;;3.41;100.00;100915.03;5053517;28;20455;-55
2023/01/27 09:23:10;;;;;;;4.50;4.10;;;;;;;3.42;100.00;100916.81;5053249;28;20570;-56
2023/01/27 09:25:36;;;;;;;3.30;3.00;;;;;;;3.53;100.00;100913.44;5053341;28;20476;-55
2023/01/27 09:28:03;;;;;;;2.60;2.50;;;;;;;3.53;100.00;100925.69;5053566;28;20466;-55
2023/01/27 09:30:29;;;;;;;2.57;2.23;;;;;;;3.54;100.00;100915.19;5053413;28;20453;-55
2023/01/27 09:32:57;;;;;;;7.00;3.83;;;;;;;3.58;100.00;100913.50;5053416;28;20545;-55
2023/01/27 09:35:25;;;;;;;7.97;5.37;;;;;;;3.69;100.00;100917.06;5053462;28;20450;-54
2023/01/27 09:37:55;;;;;;;2.73;2.53;;;;;;;3.83;100.00;100920.72;5053332;28;20453;-55
2023/01/27 09:40:51;;;;;;;1.60;1.60;;;;;;;3.87;100.00;100924.28;5053258;28;20447;-55
2023/01/27 09:43:38;;;;;;;2.77;1.87;;;;;;;3.87;100.00;100913.75;5047576;28;21066;-55
2023/01/27 09:46:35;;;;;;;4.47;2.03;;;;;;;3.85;100.00;100920.75;5052993;28;20447;-55
2023/01/27 09:49:38;;;;;;;1.83;1.73;;;;;;;3.88;100.00;100922.53;5040773;28;20454;-56
2023/01/27 09:52:11;;;;;;;1.67;1.17;;;;;;;3.85;100.00;100921.63;5052899;28;20474;-56
2023/01/27 09:54:47;;;;;;;1.87;1.77;;;;;;;3.85;100.00;100918.13;5052756;28;20483;-55
2023/01/27 09:57:36;;;;;;;1.03;1.03;;;;;;;4.04;100.00;100930.56;5053081;28;20542;-55
2023/01/27 10:00:38;;;;;;;2.00;1.90;;;;;;;3.99;100.00;100923.50;5052957;28;20821;-56
2023/01/27 10:03:26;;;;;;;1.13;0.93;;;;;;;4.11;100.00;100924.50;4971061;28;20498;-55
2023/01/27 10:06:04;;;;;;;1.50;1.27;;;;;;;4.11;100.00;100907.78;5048003;28;20959;-56
2023/01/27 10:08:43;;;;;;;1.37;1.27;;;;;;;4.40;100.00;100924.69;5040362;28;20452;-55
2023/01/27 10:11:40;;;;;;;0.70;0.70;;;;;;;4.18;100.00;100928.03;5050745;28;20455;-55
2023/01/27 10:14:29;;;;;;;2.10;1.50;;;;;;;4.27;100.00;100919.34;5050272;28;20549;-56
2023/01/27 10:17:37;;;;;;;1.37;1.27;;;;;;;4.35;100.00;100915.88;5052454;28;20447;-56
2023/01/27 10:20:48;;;;;;;1.03;0.93;;;;;;;4.32;100.00;100917.59;4961081;28;20454;-56
2023/01/27 10:23:46;;;;;;;0.60;0.60;;;;;;;4.39;100.00;100919.44;5021601;28;20490;-56
2023/01/27 10:26:23;;;;;;;3.70;1.03;;;;;;;4.39;100.00;100922.94;5039283;28;20803;-56
2023/01/27 10:28:54;;;;;;;0.30;0.30;;;;;;;4.29;100.00;100925.47;5055548;28;21013;-55
2023/01/27 10:31:34;;;;;;;0.80;0.53;;;;;;;4.15;100.00;100931.53;5059353;28;20903;-56
2023/01/27 10:34:33;;;;;;;0.80;0.80;;;;;;;4.08;100.00;100915.66;5058961;28;20512;-56
2023/01/27 10:37:09;;;;;;;0.47;0.40;;;;;;;4.19;100.00;100923.66;5050280;28;20454;-56
2023/01/27 10:40:00;;;;;;;0.67;0.67;;;;;;;3.95;100.00;100916.44;5059354;28;20446;-56
2023/01/27 10:42:37;;;;;;;1.13;1.07;;;;;;;4.06;100.00;100915.66;5059007;28;20486;-56
2023/01/27 10:45:07;;;;;;;0.83;0.67;;;;;;;3.94;100.00;100910.28;5058891;28;20895;-55
2023/01/27 10:48:07;;;;;;;1.83;0.87;;;;;;;3.84;100.00;100903.22;5059101;28;20504;-55
2023/01/27 10:50:43;;;;;;;1.93;0.50;;;;;;;4.05;100.00;100903.38;5046471;28;20465;-56
2023/01/27 10:53:18;;;;;;;3.10;1.03;;;;;;;4.02;100.00;100913.00;5058698;28;20846;-56
2023/01/27 10:56:08;;;;;;;0.83;0.83;;;;;;;4.03;100.00;100907.75;5059061;28;20442;-56
2023/01/27 10:58:46;;;;;;;0.50;0.50;;;;;;;4.02;100.00;100908.63;5058804;28;20522;-56
2023/01/27 11:01:18;;;;;;;0.93;0.93;;;;;;;4.12;100.00;100905.19;5058707;28;20816;-55
2023/01/27 11:03:56;;;;;;;1.20;1.20;;;;;;;4.17;100.00;100913.13;5058434;28;20601;-55
2023/01/27 11:06:28;;;;;;;0.30;0.20;;;;;;;4.23;100.00;100910.50;5058856;28;20477;-56
2023/01/27 11:09:12;;;;;;;0.60;0.53;;;;;;;4.05;100.00;100913.91;5058854;28;20447;-56
2023/01/27 11:11:44;;;;;;;0.30;0.30;;;;;;;4.25;100.00;100910.53;5058805;28;20503;-55
2023/01/27 11:14:28;;;;;;;0.40;0.30;;;;;;;4.06;100.00;100907.75;5058550;28;20912;-56
2023/01/27 11:17:00;;;;;;;0.70;0.70;;;;;;;4.25;100.00;100918.41;5058688;28;20443;-55
2023/01/27 11:19:39;;;;;;;0.70;0.70;;;;;;;4.14;100.00;100913.09;5058532;28;20449;-56
2023/01/27 11:22:16;;;;;;;0.97;0.30;;;;;;;4.13;100.00;100908.72;5058667;28;20496;-55
2023/01/27 11:25:04;;;;;;;0.40;0.40;;;;;;;4.04;100.00;100912.13;5028936;28;20489;-56
2023/01/27 11:28:05;;;;;;;0.30;0.30;;;;;;;4.07;100.00;100913.91;5058702;28;20447;-55
2023/01/27 11:30:45;;;;;;;0.60;0.60;;;;;;;4.04;100.00;100908.63;5058172;28;20446;-55
2023/01/27 11:34:01;;;;;;;0.30;0.30;;;;;;;4.18;100.00;100906.97;5058646;28;20550;-55
2023/01/27 11:36:28;;;;;;;0.33;0.30;;;;;;;4.24;100.00;100901.75;5049778;28;20455;-56
2023/01/27 11:38:57;;;;;;;0.40;0.40;;;;;;;4.33;100.00;100904.44;5058162;28;20795;-55
2023/01/27 11:41:24;;;;;;;0.43;0.43;;;;;;;4.34;100.00;100910.59;5055198;28;20458;-55
2023/01/27 11:43:51;;;;;;;1.33;0.87;;;;;;;4.52;100.00;100908.06;5055107;28;20501;-55
2023/01/27 11:46:22;;;;;;;0.80;0.47;;;;;;;4.39;100.00;100904.50;5054986;28;20940;-55
2023/01/27 11:48:54;;;;;;;0.30;0.20;;;;;;;4.38;100.00;100896.56;5054816;28;20451;-56
2023/01/27 11:51:23;;;;;;;0.77;0.77;;;;;;;4.20;100.00;100899.97;5055034;28;20447;-55
2023/01/27 11:54:02;;;;;;;1.33;1.33;;;;;;;4.00;100.00;100904.22;5051787;28;20470;-56
2023/01/27 11:56:29;;;;;;;3.50;1.03;;;;;;;4.30;100.00;100907.06;5055074;28;20450;-55
2023/01/27 11:59:07;;;;;;;0.50;0.50;;;;;;;4.36;100.00;100900.97;5055159;28;20449;-56
2023/01/27 12:01:47;;;;;;;0.30;0.20;;;;;;;4.36;100.00;100903.59;5054905;28;21021;-56
2023/01/27 12:04:48;;;;;;;0.33;0.33;;;;;;;4.40;100.00;100898.38;5054887;28;21254;-56
2023/01/27 12:07:30;;;;;;;0.30;0.20;;;;;;;4.55;100.00;100894.06;5054943;28;20454;-56
2023/01/27 12:09:56;;;;;;;1.87;1.63;;;;;;;4.45;100.00;100899.28;5054836;28;20465;-55
2023/01/27 12:12:25;;;;;;;0.37;0.37;;;;;;;4.28;100.00;100898.28;5054374;28;20477;-56
2023/01/27 12:14:57;;;;;;;0.40;0.37;;;;;;;4.51;100.00;100892.28;5054493;28;20447;-55